Time;durP1;ratioP1;P1;durP2;ratioP2;P2;SDS_P1;SDS_P2;PMS_P1;PMS_P2;Temp;Humidity;BMP_temperature;BMP_pressure;BME280_temperature;BME280_humidity;BME280_pressure;Samples;Min_cycle;Max_cycle;Signal;HPM_P1;HPM_P2
2022/05/25 00:00:43;;;;;;;8.32;3.22;;;11.50;99.90;;;;;;5053802;28;20025;-65
2022/05/25 00:03:09;;;;;;;8.63;3.03;;;11.50;99.90;;;;;;5054038;28;20025;-62
2022/05/25 00:05:34;;;;;;;13.57;4.18;;;11.50;99.90;;;;;;5053944;28;20033;-63
2022/05/25 00:08:00;;;;;;;6.68;2.50;;;11.50;99.90;;;;;;5053711;28;20048;-62
2022/05/25 00:10:26;;;;;;;6.65;2.95;;;11.40;99.90;;;;;;5053880;28;20056;-62
2022/05/25 00:12:52;;;;;;;5.70;2.88;;;11.40;99.90;;;;;;5053118;28;20025;-66
2022/05/25 00:15:17;;;;;;;7.47;2.90;;;11.40;99.90;;;;;;5053285;28;20059;-66
2022/05/25 00:17:43;;;;;;;9.88;3.33;;;11.40;99.90;;;;;;5053673;28;20028;-62
2022/05/25 00:20:11;;;;;;;7.93;2.50;;;11.40;99.90;;;;;;5053311;28;20078;-65
2022/05/25 00:22:47;;;;;;;6.13;2.80;;;11.30;99.90;;;;;;5053657;28;20017;-62
2022/05/25 00:25:19;;;;;;;10.98;3.40;;;11.30;99.90;;;;;;5053987;28;20493;-61
2022/05/25 00:27:45;;;;;;;13.00;4.85;;;11.30;99.90;;;;;;5047204;28;20357;-62
2022/05/25 00:30:12;;;;;;;10.93;3.90;;;11.30;99.90;;;;;;5052167;28;20059;-66
2022/05/25 00:32:38;;;;;;;9.10;2.60;;;11.20;99.90;;;;;;5052744;28;20875;-65
2022/05/25 00:35:06;;;;;;;6.57;2.72;;;11.20;99.90;;;;;;5052650;28;20028;-63
2022/05/25 00:37:31;;;;;;;8.18;2.30;;;11.20;99.90;;;;;;5051460;28;20060;-62
2022/05/25 00:39:57;;;;;;;11.57;2.88;;;11.10;99.90;;;;;;5053196;28;20024;-62
2022/05/25 00:42:23;;;;;;;7.20;1.92;;;11.10;99.90;;;;;;5052521;28;20021;-63
2022/05/25 00:44:48;;;;;;;9.43;2.25;;;11.10;99.90;;;;;;5052215;28;20035;-63
2022/05/25 00:47:25;;;;;;;5.18;2.10;;;11.10;99.90;;;;;;5051810;28;20464;-61
2022/05/25 00:49:51;;;;;;;8.75;2.20;;;11.10;99.90;;;;;;5052161;28;20090;-62
2022/05/25 00:52:17;;;;;;;8.00;2.50;;;11.00;99.90;;;;;;5051714;28;20023;-65
2022/05/25 00:54:53;;;;;;;7.22;2.20;;;11.10;99.90;;;;;;5052081;28;20048;-64
2022/05/25 00:57:29;;;;;;;7.65;2.20;;;11.00;99.90;;;;;;5049795;28;20021;-63
2022/05/25 01:00:03;;;;;;;7.03;2.67;;;11.00;99.90;;;;;;5048881;28;20028;-64
2022/05/25 01:02:29;;;;;;;7.88;2.35;;;11.00;99.90;;;;;;5050460;28;20469;-62
2022/05/25 01:04:55;;;;;;;8.80;2.88;;;11.00;99.90;;;;;;5051750;28;20025;-65
2022/05/25 01:07:43;;;;;;;10.23;3.42;;;11.10;99.90;;;;;;5049802;28;20120;-61
2022/05/25 01:10:56;;;;;;;3.60;1.35;;;11.00;99.90;;;;;;5051290;28;20127;-62
2022/05/25 01:13:39;;;;;;;12.88;4.28;;;11.00;99.90;;;;;;5037544;28;20044;-65
2022/05/25 01:16:25;;;;;;;9.85;3.80;;;11.00;99.90;;;;;;5050455;28;20044;-62
2022/05/25 01:19:09;;;;;;;5.78;2.25;;;11.00;99.90;;;;;;5050915;28;20048;-65
2022/05/25 01:21:53;;;;;;;7.03;2.45;;;11.10;99.90;;;;;;5048892;28;20075;-67
2022/05/25 01:24:30;;;;;;;4.65;1.88;;;11.00;99.90;;;;;;5049246;28;20453;-63
2022/05/25 01:26:59;;;;;;;10.32;2.33;;;11.00;99.90;;;;;;5047746;28;20029;-65
2022/05/25 01:29:46;;;;;;;9.48;2.95;;;11.00;99.90;;;;;;5051197;28;20043;-65
2022/05/25 01:32:24;;;;;;;8.23;2.80;;;11.00;99.90;;;;;;5052308;28;20118;-67
2022/05/25 01:35:30;;;;;;;6.53;2.17;;;11.00;99.90;;;;;;5052168;28;20025;-61
2022/05/25 01:38:06;;;;;;;5.28;1.60;;;11.00;99.90;;;;;;5050289;28;20035;-66
2022/05/25 01:40:46;;;;;;;7.32;2.45;;;11.00;99.90;;;;;;5042493;28;20025;-65
2022/05/25 01:43:20;;;;;;;5.35;1.75;;;11.10;99.90;;;;;;5052183;28;20048;-63
2022/05/25 01:45:57;;;;;;;4.68;1.90;;;11.10;99.90;;;;;;5052397;28;20029;-64
2022/05/25 01:48:25;;;;;;;10.70;2.65;;;11.10;99.90;;;;;;5050961;28;20523;-65
2022/05/25 01:50:56;;;;;;;9.63;2.05;;;11.10;99.90;;;;;;5054163;28;20076;-66
2022/05/25 01:53:26;;;;;;;11.57;2.70;;;11.20;99.90;;;;;;5056132;28;20017;-64
2022/05/25 01:55:57;;;;;;;10.30;4.25;;;11.10;99.90;;;;;;5059242;28;20036;-66
2022/05/25 01:58:26;;;;;;;7.45;1.92;;;11.20;99.90;;;;;;5058233;28;20012;-64
2022/05/25 02:00:56;;;;;;;10.38;3.15;;;11.20;99.90;;;;;;5060596;28;20025;-64
2022/05/25 02:06:17;;;;;;;10.57;2.80;;;11.20;99.90;;;;;;5061694;28;20055;-67
2022/05/25 02:09:09;;;;;;;6.05;2.42;;;11.20;99.90;;;;;;5070712;28;20162;-64
2022/05/25 02:11:39;;;;;;;8.85;2.63;;;11.20;99.90;;;;;;5072113;28;20020;-65
2022/05/25 02:14:26;;;;;;;13.23;3.42;;;11.20;99.90;;;;;;5061600;28;20116;-63
2022/05/25 02:17:25;;;;;;;8.07;3.08;;;11.20;99.90;;;;;;5070724;28;20074;-62
2022/05/25 02:20:18;;;;;;;7.80;2.45;;;11.20;99.90;;;;;;5074489;28;20016;-66
2022/05/25 02:22:56;;;;;;;14.23;2.88;;;11.20;99.90;;;;;;5061091;28;20017;-63
2022/05/25 02:25:32;;;;;;;8.68;2.45;;;11.20;99.90;;;;;;5066641;28;20365;-63
2022/05/25 02:28:06;;;;;;;9.32;3.05;;;11.20;99.90;;;;;;5074889;28;20475;-66
2022/05/25 02:30:37;;;;;;;10.38;2.38;;;11.20;99.90;;;;;;5062922;28;20416;-65
2022/05/25 02:33:14;;;;;;;10.55;2.85;;;11.20;99.90;;;;;;5068804;28;20478;-63
2022/05/25 02:35:42;;;;;;;8.05;2.58;;;11.20;99.90;;;;;;5072682;28;20037;-64
2022/05/25 02:38:09;;;;;;;6.82;1.90;;;11.20;99.90;;;;;;5061740;28;20104;-65
2022/05/25 02:40:38;;;;;;;8.13;2.03;;;11.20;99.90;;;;;;5072636;28;20044;-65
2022/05/25 02:43:06;;;;;;;5.78;2.30;;;11.20;99.90;;;;;;5067277;28;20029;-62
2022/05/25 02:45:32;;;;;;;7.95;2.20;;;11.20;99.90;;;;;;5064906;28;20044;-65
2022/05/25 02:47:57;;;;;;;6.18;2.15;;;11.30;99.90;;;;;;5074849;28;20090;-62
2022/05/25 02:50:23;;;;;;;11.00;2.45;;;11.30;99.90;;;;;;5062154;28;20017;-62
2022/05/25 02:52:49;;;;;;;8.90;2.10;;;11.30;99.90;;;;;;5071098;28;20033;-63
2022/05/25 02:55:15;;;;;;;2.95;2.13;;;11.30;99.90;;;;;;5067980;28;20043;-64
2022/05/25 02:57:41;;;;;;;5.63;1.90;;;11.30;99.90;;;;;;5070220;28;20089;-64
2022/05/25 03:00:08;;;;;;;7.63;2.42;;;11.30;99.90;;;;;;5076367;28;20461;-63
2022/05/25 03:02:35;;;;;;;7.63;2.50;;;11.30;99.90;;;;;;5063266;28;20020;-64
2022/05/25 03:05:00;;;;;;;8.20;2.30;;;11.30;99.90;;;;;;5064370;28;20021;-63
2022/05/25 03:07:26;;;;;;;8.15;2.35;;;11.30;99.90;;;;;;5067174;28;20037;-62
2022/05/25 03:09:53;;;;;;;7.80;2.30;;;11.20;99.90;;;;;;5058928;28;20029;-61
2022/05/25 03:12:18;;;;;;;7.80;2.45;;;11.20;99.90;;;;;;5071309;28;20013;-63
2022/05/25 03:14:44;;;;;;;6.75;2.38;;;11.20;99.90;;;;;;5059952;28;20028;-63
2022/05/25 03:17:14;;;;;;;8.70;2.47;;;11.20;99.90;;;;;;5062882;28;20020;-63
2022/05/25 03:19:53;;;;;;;11.55;3.10;;;11.20;99.90;;;;;;5068941;28;20111;-61
2022/05/25 03:22:19;;;;;;;8.57;2.40;;;11.20;99.90;;;;;;5057890;28;20538;-63
2022/05/25 03:24:45;;;;;;;7.30;2.72;;;11.20;99.90;;;;;;5067822;28;20127;-63
2022/05/25 03:27:11;;;;;;;13.02;2.42;;;11.20;99.90;;;;;;5064530;28;20041;-65
2022/05/25 03:29:36;;;;;;;8.05;3.17;;;11.10;99.90;;;;;;5060646;28;20025;-64
2022/05/25 03:32:02;;;;;;;4.25;2.50;;;11.10;99.90;;;;;;5071088;28;20048;-61
2022/05/25 03:34:28;;;;;;;7.13;2.10;;;11.10;99.90;;;;;;5058801;28;20024;-61
2022/05/25 03:36:56;;;;;;;12.70;2.60;;;11.10;99.90;;;;;;5065980;28;20024;-65
2022/05/25 03:39:24;;;;;;;14.85;2.58;;;11.10;99.90;;;;;;5065908;28;20021;-62
2022/05/25 03:41:55;;;;;;;6.68;1.98;;;11.10;99.90;;;;;;5058267;28;20128;-61
2022/05/25 03:44:21;;;;;;;6.00;2.28;;;11.10;99.90;;;;;;5069273;28;20341;-63
2022/05/25 03:46:47;;;;;;;8.80;2.10;;;11.10;99.90;;;;;;5060926;28;20025;-64
2022/05/25 03:49:13;;;;;;;9.43;2.28;;;11.10;99.90;;;;;;5063258;28;20024;-64
2022/05/25 03:51:39;;;;;;;7.50;2.40;;;11.10;99.90;;;;;;5067886;28;20518;-67
2022/05/25 03:54:04;;;;;;;7.45;2.40;;;11.10;99.90;;;;;;5055848;28;20021;-64
2022/05/25 03:56:30;;;;;;;6.93;2.08;;;11.10;99.90;;;;;;5069054;28;20025;-62
2022/05/25 03:58:55;;;;;;;8.90;2.38;;;11.10;99.90;;;;;;5061915;28;20134;-63
2022/05/25 04:01:21;;;;;;;5.13;2.20;;;11.20;99.90;;;;;;5066244;28;20111;-66
2022/05/25 04:03:46;;;;;;;6.68;2.53;;;11.20;99.90;;;;;;5069360;28;20056;-61
2022/05/25 04:06:12;;;;;;;4.30;2.00;;;11.20;99.90;;;;;;5071373;28;20032;-63
2022/05/25 04:08:38;;;;;;;3.20;1.70;;;11.30;99.90;;;;;;5058994;28;20031;-64
2022/05/25 04:11:03;;;;;;;10.35;2.28;;;11.30;99.90;;;;;;5063813;28;20029;-65
2022/05/25 04:13:29;;;;;;;6.25;2.13;;;11.30;99.90;;;;;;5064968;28;20097;-64
2022/05/25 04:15:54;;;;;;;6.10;2.20;;;11.30;99.90;;;;;;5056944;28;20031;-66
2022/05/25 04:18:20;;;;;;;8.95;2.08;;;11.40;99.90;;;;;;5069413;28;20055;-61
2022/05/25 04:20:45;;;;;;;4.15;1.77;;;11.40;99.90;;;;;;5059794;28;20029;-63
2022/05/25 04:23:12;;;;;;;4.57;2.25;;;11.40;99.90;;;;;;5063573;28;20023;-60
2022/05/25 04:25:40;;;;;;;6.90;2.45;;;11.50;99.90;;;;;;5059430;28;20466;-64
2022/05/25 04:28:06;;;;;;;4.07;1.63;;;11.50;99.90;;;;;;5061982;28;20397;-65
2022/05/25 04:30:32;;;;;;;7.05;1.90;;;11.60;99.90;;;;;;5053277;28;20098;-64
2022/05/25 04:32:58;;;;;;;2.90;1.60;;;11.80;99.90;;;;;;5052222;28;20067;-62
2022/05/25 04:35:26;;;;;;;4.97;1.75;;;11.80;99.90;;;;;;5053524;28;20032;-62
2022/05/25 04:37:52;;;;;;;5.35;1.95;;;11.90;99.90;;;;;;5050894;28;20403;-64
2022/05/25 04:40:21;;;;;;;6.32;1.92;;;12.00;99.90;;;;;;5052130;28;20472;-66
2022/05/25 04:42:48;;;;;;;5.00;2.70;;;12.10;99.90;;;;;;5053015;28;20445;-67
2022/05/25 04:45:14;;;;;;;3.90;1.77;;;12.10;99.90;;;;;;5052814;28;20116;-65
2022/05/25 04:47:43;;;;;;;8.52;2.50;;;12.10;99.90;;;;;;5053168;28;20040;-65
2022/05/25 04:50:10;;;;;;;5.95;2.45;;;12.10;99.90;;;;;;5053134;28;20032;-65
2022/05/25 04:52:37;;;;;;;11.82;2.63;;;12.10;99.90;;;;;;5052830;28;20130;-64
2022/05/25 04:55:04;;;;;;;7.00;2.60;;;12.10;99.90;;;;;;5053074;28;20025;-66
2022/05/25 04:57:30;;;;;;;9.05;2.83;;;12.00;99.90;;;;;;5053154;28;20017;-65
2022/05/25 04:59:59;;;;;;;8.10;2.88;;;12.00;99.90;;;;;;5053153;28;20100;-64
2022/05/25 05:02:25;;;;;;;7.78;2.90;;;12.00;99.90;;;;;;5052134;28;20031;-62
2022/05/25 05:04:51;;;;;;;6.10;2.80;;;12.00;99.90;;;;;;5052792;28;20021;-63
2022/05/25 05:07:16;;;;;;;7.65;3.13;;;12.10;99.90;;;;;;5051493;28;20370;-63
2022/05/25 05:09:44;;;;;;;8.63;3.88;;;12.10;99.90;;;;;;5053039;28;20036;-63
2022/05/25 05:12:10;;;;;;;13.50;4.72;;;12.20;99.90;;;;;;5053070;28;20024;-63
2022/05/25 05:14:37;;;;;;;16.38;6.32;;;12.20;99.90;;;;;;5052756;28;20021;-63
2022/05/25 05:17:04;;;;;;;9.63;4.40;;;12.40;99.90;;;;;;5052906;28;20509;-67
2022/05/25 05:19:30;;;;;;;20.50;7.97;;;12.40;99.90;;;;;;5051141;28;20039;-64
2022/05/25 05:21:59;;;;;;;16.95;6.05;;;12.50;99.90;;;;;;5052890;28;20368;-63
2022/05/25 05:24:29;;;;;;;14.63;4.35;;;12.60;99.90;;;;;;5052867;28;20047;-61
2022/05/25 05:26:55;;;;;;;12.68;5.22;;;12.80;99.90;;;;;;5052033;28;20037;-64
2022/05/25 05:29:22;;;;;;;12.75;5.53;;;12.80;99.90;;;;;;5052003;28;20025;-65
2022/05/25 05:31:49;;;;;;;16.42;5.57;;;13.00;99.90;;;;;;5052611;28;20420;-64
2022/05/25 05:34:15;;;;;;;11.02;4.93;;;13.20;99.90;;;;;;5052474;28;20035;-66
2022/05/25 05:36:52;;;;;;;11.82;5.35;;;13.50;99.90;;;;;;5052545;28;20029;-65
2022/05/25 05:39:19;;;;;;;13.70;5.50;;;13.80;99.90;;;;;;5052518;28;20108;-63
2022/05/25 05:41:49;;;;;;;14.88;5.88;;;14.20;99.90;;;;;;5052280;28;20025;-61
2022/05/25 05:44:20;;;;;;;16.60;6.40;;;14.50;99.90;;;;;;5052656;28;20028;-61
2022/05/25 05:46:48;;;;;;;19.45;7.00;;;14.80;99.90;;;;;;5051790;28;20033;-65
2022/05/25 05:49:14;;;;;;;13.90;6.07;;;15.20;99.90;;;;;;5052380;28;20028;-63
2022/05/25 05:51:41;;;;;;;28.42;12.32;;;15.70;99.90;;;;;;5052386;28;20025;-63
2022/05/25 05:54:06;;;;;;;13.40;5.68;;;16.20;99.90;;;;;;5051124;28;20092;-61
2022/05/25 05:56:33;;;;;;;15.25;6.18;;;17.00;99.90;;;;;;5052358;28;20025;-65
2022/05/25 05:59:00;;;;;;;17.98;6.78;;;17.60;99.90;;;;;;5052354;28;20025;-63
2022/05/25 06:01:26;;;;;;;17.92;5.10;;;18.20;99.90;;;;;;5051810;28;20100;-63
2022/05/25 06:03:51;;;;;;;13.52;5.03;;;18.70;99.90;;;;;;5052325;28;20612;-60
2022/05/25 06:06:17;;;;;;;11.05;4.97;;;19.10;99.90;;;;;;5052063;28;20114;-64
2022/05/25 06:08:46;;;;;;;13.15;6.28;;;19.50;99.90;;;;;;5050759;28;20099;-67
2022/05/25 06:11:19;;;;;;;14.55;5.43;;;19.80;99.90;;;;;;5051798;28;20014;-63
2022/05/25 06:13:45;;;;;;;17.38;6.72;;;20.00;99.90;;;;;;5051786;28;20036;-64
2022/05/25 06:21:39;;;;;;;15.85;5.07;;;19.70;99.90;;;;;;5051614;28;20036;-62
2022/05/25 06:24:05;;;;;;;14.15;6.35;;;19.50;99.90;;;;;;5051886;28;20492;-64
2022/05/25 06:26:32;;;;;;;11.88;6.15;;;19.70;99.90;;;;;;5051977;28;20052;-63
2022/05/25 06:29:01;;;;;;;17.05;6.68;;;20.00;99.90;;;;;;5039681;28;20037;-62
2022/05/25 06:31:28;;;;;;;20.20;7.50;;;20.80;99.90;;;;;;5054624;28;20036;-64
2022/05/25 06:33:54;;;;;;;18.20;6.63;;;21.10;99.90;;;;;;5064335;28;20021;-65
2022/05/25 06:36:21;;;;;;;18.10;8.68;;;21.10;99.90;;;;;;5061137;28;20032;-63
2022/05/25 06:38:47;;;;;;;16.63;7.45;;;20.50;99.90;;;;;;5057854;28;20032;-62
2022/05/25 06:41:14;;;;;;;19.15;7.07;;;19.90;99.90;;;;;;5071710;28;20028;-65
2022/05/25 06:43:40;;;;;;;19.05;7.50;;;19.50;99.90;;;;;;5060479;28;20035;-65
2022/05/25 06:46:07;;;;;;;15.60;6.13;;;19.00;99.90;;;;;;5066424;28;20481;-64
2022/05/25 06:48:33;;;;;;;19.73;6.55;;;18.60;99.90;;;;;;5066692;28;20040;-62
2022/05/25 06:51:08;;;;;;;14.77;6.78;;;18.30;99.90;;;;;;5058730;28;20032;-61
2022/05/25 06:53:34;;;;;;;18.98;7.55;;;18.80;99.90;;;;;;5044020;28;20069;-61
2022/05/25 06:55:59;;;;;;;22.02;11.35;;;19.70;99.90;;;;;;5066984;28;20129;-62
2022/05/25 06:58:25;;;;;;;11.80;5.13;;;20.20;99.90;;;;;;5065327;28;20020;-62
2022/05/25 07:00:50;;;;;;;12.18;5.10;;;20.20;99.90;;;;;;5059485;28;20042;-61
2022/05/25 07:03:16;;;;;;;16.55;6.78;;;19.70;99.90;;;;;;5070766;28;20586;-61
2022/05/25 07:05:42;;;;;;;8.43;3.80;;;19.40;99.90;;;;;;5059680;28;20024;-61
2022/05/25 07:08:07;;;;;;;13.05;4.70;;;19.10;99.90;;;;;;5063929;28;20116;-61
2022/05/25 07:10:33;;;;;;;18.60;7.40;;;18.70;99.90;;;;;;5062201;28;20025;-61
2022/05/25 07:12:58;;;;;;;14.13;4.72;;;18.70;99.90;;;;;;5071247;28;20028;-61
2022/05/25 07:15:24;;;;;;;8.50;2.80;;;19.00;99.90;;;;;;5057917;28;20124;-61
2022/05/25 07:17:49;;;;;;;13.25;5.03;;;19.80;99.90;;;;;;5067881;28;20068;-61
2022/05/25 07:20:15;;;;;;;11.10;3.78;;;20.40;99.90;;;;;;5063415;28;20040;-61
2022/05/25 07:22:40;;;;;;;11.82;3.53;;;20.80;99.90;;;;;;5061161;28;20071;-61
2022/05/25 07:25:07;;;;;;;10.55;3.83;;;21.50;99.90;;;;;;5070825;28;20021;-62
2022/05/25 07:27:32;;;;;;;14.02;5.30;;;22.10;99.90;;;;;;5058398;28;20052;-61
2022/05/25 07:29:58;;;;;;;10.98;3.85;;;22.40;99.90;;;;;;5065228;28;20120;-62
2022/05/25 07:32:24;;;;;;;12.00;3.50;;;22.50;99.60;;;;;;5064480;28;20076;-61
2022/05/25 07:34:59;;;;;;;8.52;3.20;;;22.40;99.80;;;;;;5058031;28;20031;-61
2022/05/25 07:37:32;;;;;;;9.45;3.15;;;22.40;98.90;;;;;;5070012;28;20471;-61
2022/05/25 07:40:08;;;;;;;9.40;3.05;;;21.60;99.90;;;;;;5054128;28;20067;-62
2022/05/25 07:42:34;;;;;;;16.15;5.85;;;21.20;99.90;;;;;;5054034;28;20377;-62
2022/05/25 07:45:03;;;;;;;10.43;2.80;;;21.30;99.90;;;;;;5052501;28;20420;-61
2022/05/25 07:47:31;;;;;;;14.82;4.55;;;21.70;99.80;;;;;;5035851;28;20127;-61
2022/05/25 07:49:56;;;;;;;11.25;2.97;;;21.40;99.90;;;;;;5049103;28;20439;-61
2022/05/25 07:52:25;;;;;;;6.22;2.70;;;21.10;99.90;;;;;;5061777;28;20108;-61
2022/05/25 07:54:51;;;;;;;11.82;3.60;;;20.70;99.90;;;;;;5054321;28;20079;-62
2022/05/25 07:57:17;;;;;;;10.27;4.00;;;20.40;99.90;;;;;;5054131;28;20029;-61
2022/05/25 07:59:42;;;;;;;11.68;3.83;;;20.50;99.90;;;;;;5053143;28;20029;-61
2022/05/25 08:05:49;;;;;;;11.30;3.47;;;20.50;99.90;;;;;;5051305;28;20086;-63
2022/05/25 08:08:10;;;;;;;12.60;3.45;;;20.10;99.90;;;;;;5044256;28;20099;-62
2022/05/25 08:10:36;;;;;;;6.90;2.70;;;19.90;99.90;;;;;;5053224;28;20560;-62
2022/05/25 08:13:02;;;;;;;12.18;3.47;;;19.80;99.90;;;;;;5046693;28;20128;-62
2022/05/25 08:15:29;;;;;;;9.10;3.40;;;19.80;99.90;;;;;;5055835;28;20454;-65
2022/05/25 08:17:55;;;;;;;11.82;3.38;;;19.90;99.90;;;;;;5049482;28;20024;-65
2022/05/25 08:20:22;;;;;;;6.05;2.05;;;20.00;99.90;;;;;;5049860;28;20469;-65
2022/05/25 08:22:48;;;;;;;12.48;3.58;;;20.20;99.90;;;;;;5070663;28;20029;-62
2022/05/25 08:25:15;;;;;;;8.88;2.42;;;20.50;99.90;;;;;;5060411;28;20072;-62
2022/05/25 08:27:41;;;;;;;13.95;2.85;;;20.80;99.20;;;;;;5050102;28;20041;-62
2022/05/25 08:30:13;;;;;;;9.77;3.35;;;20.90;99.30;;;;;;5054072;28;20456;-62
2022/05/25 08:32:38;;;;;;;;;;;21.10;98.90;;;;;;5064712;28;20392;-62
2022/05/25 08:35:05;;;;;;;9.38;2.20;;;21.10;99.00;;;;;;5052386;28;20010;-62
2022/05/25 08:37:30;;;;;;;6.63;2.20;;;21.40;99.00;;;;;;5046705;28;20361;-63
2022/05/25 08:39:56;;;;;;;9.65;2.55;;;21.80;97.00;;;;;;5041652;28;20025;-62
2022/05/25 08:42:26;;;;;;;7.80;1.85;;;21.90;95.80;;;;;;5048888;28;20037;-62
2022/05/25 08:44:55;;;;;;;12.40;2.95;;;22.20;96.20;;;;;;5062475;28;20106;-63
2022/05/25 08:47:21;;;;;;;6.43;2.15;;;22.20;96.20;;;;;;5050299;28;20025;-63
2022/05/25 08:49:51;;;;;;;5.90;2.13;;;22.00;96.40;;;;;;5058661;28;20024;-62
2022/05/25 08:52:29;;;;;;;11.88;2.22;;;22.10;96.90;;;;;;5072600;28;20112;-63
2022/05/25 08:54:54;;;;;;;8.23;1.77;;;22.30;97.30;;;;;;5035957;28;20032;-62
2022/05/25 08:57:31;;;;;;;6.85;1.58;;;22.40;96.40;;;;;;5035615;28;20024;-62
2022/05/25 09:00:02;;;;;;;4.40;1.50;;;22.10;95.00;;;;;;5047875;28;20106;-61
2022/05/25 09:02:36;;;;;;;10.65;2.03;;;21.90;94.80;;;;;;5046404;28;20033;-62
2022/05/25 09:05:25;;;;;;;4.63;1.73;;;22.00;94.90;;;;;;5048898;28;20029;-63
2022/05/25 09:08:26;;;;;;;7.93;1.50;;;22.40;94.10;;;;;;5047417;28;20083;-63
2022/05/25 09:11:01;;;;;;;5.03;1.20;;;22.70;92.80;;;;;;5010577;28;20029;-65
2022/05/25 09:13:38;;;;;;;4.97;1.20;;;22.90;92.60;;;;;;5032438;28;20033;-61
2022/05/25 09:16:18;;;;;;;5.03;1.10;;;23.00;92.00;;;;;;5044848;28;20035;-62
2022/05/25 09:18:59;;;;;;;5.80;1.42;;;23.20;90.60;;;;;;5051144;28;20029;-62
2022/05/25 09:21:29;;;;;;;5.78;1.00;;;22.90;90.90;;;;;;5067057;28;20025;-63
2022/05/25 09:23:58;;;;;;;7.85;1.90;;;23.10;91.10;;;;;;5054482;28;20095;-64
2022/05/25 09:26:25;;;;;;;4.22;1.17;;;22.90;90.80;;;;;;5055804;28;20020;-62
2022/05/25 09:28:55;;;;;;;5.47;1.33;;;23.30;90.50;;;;;;5054689;28;20025;-62
2022/05/25 09:31:27;;;;;;;7.50;1.60;;;23.70;88.00;;;;;;5052619;28;20118;-62
2022/05/25 09:34:00;;;;;;;3.42;0.93;;;23.40;88.50;;;;;;5051587;28;20025;-62
2022/05/25 09:36:34;;;;;;;2.53;1.10;;;23.70;86.20;;;;;;5051971;28;20075;-61
2022/05/25 09:39:12;;;;;;;4.72;1.08;;;23.70;86.10;;;;;;5051351;28;20495;-62
2022/05/25 09:41:41;;;;;;;4.10;1.25;;;24.10;85.00;;;;;;5052945;28;20723;-62
2022/05/25 09:44:11;;;;;;;4.47;0.93;;;24.20;84.30;;;;;;5050552;28;20021;-62
2022/05/25 09:46:48;;;;;;;2.92;1.17;;;24.10;84.60;;;;;;5050007;28;20032;-61
2022/05/25 09:49:40;;;;;;;4.60;1.38;;;24.40;84.50;;;;;;5051377;28;20453;-65
2022/05/25 09:52:14;;;;;;;6.10;1.38;;;24.60;81.70;;;;;;5048985;28;20056;-62
2022/05/25 09:55:05;;;;;;;2.55;0.88;;;23.90;82.90;;;;;;5051787;28;20108;-66
2022/05/25 09:57:36;;;;;;;3.40;1.10;;;23.40;83.80;;;;;;5050661;28;20027;-61
2022/05/25 10:00:09;;;;;;;2.47;0.90;;;23.40;83.00;;;;;;5049292;28;20021;-61
2022/05/25 10:02:37;;;;;;;5.00;1.10;;;23.90;81.30;;;;;;5051231;28;20025;-65
2022/05/25 10:05:15;;;;;;;5.35;1.25;;;24.00;80.10;;;;;;5048704;28;20408;-62
2022/05/25 10:08:18;;;;;;;11.73;3.10;;;24.60;81.10;;;;;;5051121;28;20033;-64
2022/05/25 10:10:56;;;;;;;4.32;1.60;;;25.00;79.40;;;;;;5048685;28;20048;-63
2022/05/25 10:13:41;;;;;;;2.35;0.93;;;24.80;78.40;;;;;;5051520;28;20013;-61
2022/05/25 10:16:28;;;;;;;5.13;1.73;;;24.20;78.00;;;;;;5051162;28;20021;-62
2022/05/25 10:18:54;;;;;;;4.78;1.67;;;24.30;79.20;;;;;;5052454;28;20042;-65
2022/05/25 10:21:35;;;;;;;5.25;1.67;;;24.50;79.70;;;;;;5055398;28;20024;-64
2022/05/25 10:24:12;;;;;;;4.35;1.40;;;25.10;78.80;;;;;;5055576;28;20341;-61
2022/05/25 10:26:45;;;;;;;7.32;1.90;;;25.10;77.20;;;;;;5056057;28;20029;-62
2022/05/25 10:36:45;;;;;;;6.55;1.50;;;25.10;77.90;;;;;;5052034;28;20067;-63
2022/05/25 10:37:55;;;;;;;2.35;1.20;;;24.70;79.00;;;;;;5053677;28;20028;-65
2022/05/25 10:40:24;;;;;;;3.83;0.98;;;24.40;80.10;;;;;;5050690;28;20032;-61
2022/05/25 10:42:56;;;;;;;4.82;1.20;;;24.60;79.20;;;;;;5054566;28;20025;-61
2022/05/25 10:45:32;;;;;;;4.68;1.20;;;24.50;80.20;;;;;;5053471;28;20013;-62
2022/05/25 10:48:37;;;;;;;3.05;1.05;;;24.30;80.20;;;;;;5049583;28;20033;-66
2022/05/25 10:51:09;;;;;;;3.70;1.02;;;24.40;79.70;;;;;;5053959;28;20021;-61
2022/05/25 10:56:52;;;;;;;5.72;1.00;;;24.90;80.40;;;;;;5052114;28;20078;-62
2022/05/25 10:59:23;;;;;;;6.53;1.00;;;24.90;80.30;;;;;;5052829;28;20023;-62
2022/05/25 11:02:15;;;;;;;9.10;1.52;;;25.10;80.70;;;;;;5052467;28;20025;-62
2022/05/25 11:05:01;;;;;;;;;;;25.70;79.30;;;;;;5054317;28;20045;-62
2022/05/25 11:07:33;;;;;;;4.13;0.88;;;25.30;80.60;;;;;;5050472;28;20365;-62
2022/05/25 11:10:11;;;;;;;;;;;25.20;79.70;;;;;;5054674;28;20401;-62
2022/05/25 11:12:47;;;;;;;21.95;4.25;;;25.10;81.40;;;;;;5052554;28;20365;-64
2022/05/25 11:15:45;;;;;;;13.60;3.40;;;25.30;80.90;;;;;;5052461;28;20473;-62
2022/05/25 11:18:29;;;;;;;7.47;2.17;;;24.80;81.60;;;;;;5051418;28;20036;-62
2022/05/25 11:21:08;;;;;;;7.88;2.92;;;25.20;81.50;;;;;;5052154;28;20025;-62
2022/05/25 11:24:11;;;;;;;5.30;1.60;;;25.50;80.40;;;;;;5052150;28;20078;-62
2022/05/25 11:27:15;;;;;;;6.75;2.33;;;26.00;80.30;;;;;;5053878;28;20028;-66
2022/05/25 11:30:22;;;;;;;11.43;3.33;;;26.20;78.90;;;;;;5050328;28;20549;-62
2022/05/25 11:33:38;;;;;;;9.27;2.05;;;25.30;80.40;;;;;;5049515;28;20485;-62
2022/05/25 11:36:12;;;;;;;7.32;2.17;;;25.00;82.00;;;;;;5046547;28;20143;-62
2022/05/25 11:39:24;;;;;;;6.65;2.33;;;24.90;81.60;;;;;;5053346;28;20028;-62
2022/05/25 11:42:17;;;;;;;7.85;1.95;;;24.50;81.70;;;;;;5042657;28;20599;-65
2022/05/25 11:44:49;;;;;;;9.70;2.63;;;24.30;82.90;;;;;;5054277;28;20043;-62
2022/05/25 11:47:17;;;;;;;8.45;2.80;;;24.00;83.60;;;;;;5054283;28;20037;-62
2022/05/25 11:50:14;;;;;;;5.00;1.48;;;23.70;84.10;;;;;;5053809;28;20021;-62
2022/05/25 11:53:15;;;;;;;11.25;2.83;;;23.70;84.00;;;;;;5044694;28;20044;-62
2022/05/25 11:56:23;;;;;;;9.77;2.35;;;23.70;83.90;;;;;;5052495;28;20032;-62
2022/05/25 11:59:10;;;;;;;7.65;2.33;;;23.50;83.80;;;;;;5052318;28;20518;-63
2022/05/25 12:01:44;;;;;;;9.18;2.45;;;22.70;85.70;;;;;;5053867;28;20032;-64
2022/05/25 12:04:28;;;;;;;9.60;2.08;;;22.20;88.10;;;;;;5053154;28;20105;-63
2022/05/25 12:07:10;;;;;;;7.30;2.80;;;22.30;88.30;;;;;;5057870;28;20124;-62
2022/05/25 12:10:14;;;;;;;6.47;2.20;;;22.40;89.00;;;;;;5059018;28;20021;-62
2022/05/25 12:12:43;;;;;;;6.10;2.08;;;22.30;87.20;;;;;;5011931;28;20036;-62
2022/05/25 12:15:09;;;;;;;10.25;2.63;;;21.90;88.20;;;;;;5045288;28;20437;-62
2022/05/25 12:18:09;;;;;;;5.65;1.75;;;21.70;89.00;;;;;;5053593;28;20056;-62
2022/05/25 12:21:25;;;;;;;9.77;1.30;;;21.30;89.60;;;;;;5051345;28;20037;-62
2022/05/25 12:24:07;;;;;;;6.03;2.33;;;21.00;90.30;;;;;;5022781;28;21750;-62
2022/05/25 12:26:34;;;;;;;5.63;1.88;;;20.80;91.00;;;;;;5052181;28;20374;-66
2022/05/25 12:29:23;;;;;;;6.28;1.75;;;20.70;90.70;;;;;;5052405;28;20052;-61
2022/05/25 12:31:56;;;;;;;5.78;1.90;;;20.40;90.60;;;;;;5053535;28;20041;-62
2022/05/25 12:34:40;;;;;;;3.95;1.30;;;20.10;91.10;;;;;;5051665;28;20021;-63
2022/05/25 12:37:08;;;;;;;7.57;1.85;;;19.80;91.20;;;;;;5052832;28;20029;-67
2022/05/25 12:39:42;;;;;;;10.05;1.98;;;19.50;91.70;;;;;;5066331;28;20460;-62
2022/05/25 12:42:23;;;;;;;6.35;1.40;;;19.30;92.60;;;;;;5061860;28;20091;-63
2022/05/25 12:50:50;;;;;;;9.50;1.80;;;19.30;92.40;;;;;;5060530;28;20473;-62
2022/05/25 12:53:33;;;;;;;9.45;1.33;;;19.10;92.30;;;;;;5049020;28;20032;-63
2022/05/25 12:56:11;;;;;;;8.02;2.40;;;18.90;92.40;;;;;;5052535;28;20029;-63
2022/05/25 12:58:47;;;;;;;7.18;1.60;;;18.70;92.10;;;;;;5057014;28;20024;-62
2022/05/25 13:01:32;;;;;;;10.65;1.90;;;18.80;92.30;;;;;;5070197;28;20464;-63
2022/05/25 13:03:58;;;;;;;5.05;1.30;;;19.10;92.60;;;;;;5071420;28;20369;-63
2022/05/25 13:06:29;;;;;;;10.95;2.20;;;19.30;93.00;;;;;;5072536;28;20021;-63
2022/05/25 13:08:55;;;;;;;5.55;1.27;;;19.50;93.10;;;;;;5072640;28;20071;-63
2022/05/25 13:11:29;;;;;;;10.25;1.85;;;19.50;93.20;;;;;;5072931;28;20048;-63
2022/05/25 13:13:56;;;;;;;8.68;1.50;;;19.60;93.60;;;;;;5072763;28;20052;-61
2022/05/25 13:16:40;;;;;;;11.02;1.58;;;19.60;93.50;;;;;;5072868;28;20380;-62
2022/05/25 13:19:16;;;;;;;7.68;1.67;;;19.80;93.90;;;;;;5064840;28;20702;-62
2022/05/25 13:21:52;;;;;;;8.20;1.80;;;19.90;93.10;;;;;;5053005;28;20033;-61
2022/05/25 13:24:45;;;;;;;5.95;1.60;;;19.90;93.60;;;;;;5053141;28;20472;-61
2022/05/25 13:27:24;;;;;;;10.43;1.60;;;20.00;93.60;;;;;;5051058;28;20024;-61
2022/05/25 13:30:04;;;;;;;6.68;1.40;;;20.20;93.30;;;;;;5049894;28;20029;-61
2022/05/25 13:32:48;;;;;;;13.20;1.95;;;20.40;93.10;;;;;;5051122;28;20033;-61
2022/05/25 13:35:19;;;;;;;8.15;1.35;;;20.40;92.50;;;;;;5051117;28;20048;-63
2022/05/25 13:37:46;;;;;;;7.93;1.60;;;20.30;92.50;;;;;;5050261;28;20473;-62